createdAt,value
2023-05-01T00:00:38.818Z,7.90
2023-05-01T00:03:07.207Z,8.00
2023-05-01T00:05:35.612Z,8.00
2023-05-01T00:08:03.777Z,8.00
2023-05-01T00:10:36.337Z,8.20
2023-05-01T00:13:05.173Z,8.10
2023-05-01T00:15:33.828Z,8.10
2023-05-01T00:18:02.082Z,8.20
2023-05-01T00:20:30.959Z,8.20
2023-05-01T00:22:59.135Z,8.20
2023-05-01T00:25:28.709Z,8.50
2023-05-01T00:27:58.620Z,8.30
2023-05-01T00:30:27.673Z,8.20
2023-05-01T00:32:56.056Z,8.20
2023-05-01T00:35:24.347Z,8.40
2023-05-01T00:37:52.535Z,8.20
2023-05-01T00:40:21.026Z,8.20
2023-05-01T00:42:49.442Z,8.20
2023-05-01T00:45:19.057Z,8.50
2023-05-01T00:47:48.183Z,8.10
2023-05-01T00:50:16.448Z,8.10
2023-05-01T00:52:44.680Z,8.00
2023-05-01T00:55:13.087Z,8.00
2023-05-01T00:57:41.391Z,8.00
2023-05-01T01:00:12.435Z,7.80
2023-05-01T01:02:42.001Z,7.80
2023-05-01T01:05:11.507Z,7.70
2023-05-01T01:07:50.425Z,7.70
2023-05-01T01:10:27.860Z,7.90
2023-05-01T01:13:05.050Z,7.60
2023-05-01T01:15:37.489Z,7.80
2023-05-01T01:18:13.155Z,7.60
2023-05-01T01:20:47.721Z,7.50
2023-05-01T01:23:37.789Z,7.50
2023-05-01T01:26:14.741Z,7.50
2023-05-01T01:29:32.077Z,7.50
2023-05-01T01:32:10.895Z,7.50
2023-05-01T01:34:45.718Z,7.50
2023-05-01T01:37:21.628Z,7.80
2023-05-01T01:39:54.994Z,7.40
2023-05-01T01:42:31.550Z,7.40
2023-05-01T01:45:05.806Z,7.40
2023-05-01T01:47:35.544Z,7.30
2023-05-01T01:50:08.362Z,7.30
2023-05-01T01:52:38.259Z,7.20
2023-05-01T01:55:09.676Z,7.30
2023-05-01T01:57:39.610Z,7.20
2023-05-01T02:00:11.513Z,7.40
2023-05-01T02:02:47.867Z,7.10
2023-05-01T02:05:19.514Z,7.00
2023-05-01T02:07:50.490Z,7.00
2023-05-01T02:10:19.847Z,6.90
2023-05-01T02:12:50.133Z,6.90
2023-05-01T02:15:19.959Z,6.90
2023-05-01T02:17:51.227Z,6.80
2023-05-01T02:20:22.372Z,6.80
2023-05-01T02:22:53.116Z,6.80
2023-05-01T02:25:22.449Z,6.80
2023-05-01T02:27:56.898Z,6.80
2023-05-01T02:30:25.222Z,6.90
2023-05-01T02:32:54.126Z,6.90
2023-05-01T02:35:23.704Z,6.90
2023-05-01T02:37:52.435Z,7.00
2023-05-01T02:40:21.234Z,7.00
2023-05-01T02:42:50.769Z,7.00
2023-05-01T02:45:21.698Z,7.10
2023-05-01T02:47:52.832Z,7.10
2023-05-01T02:50:22.270Z,7.10
2023-05-01T02:52:52.494Z,7.10
2023-05-01T02:55:38.403Z,7.10
2023-05-01T02:58:07.005Z,7.10
2023-05-01T03:00:35.685Z,7.30
2023-05-01T03:03:03.885Z,7.20
2023-05-01T03:05:32.140Z,7.20
2023-05-01T03:08:01.619Z,7.20
2023-05-01T03:10:29.754Z,7.20
2023-05-01T03:12:57.932Z,7.20
2023-05-01T03:15:26.085Z,7.20
2023-05-01T03:17:54.896Z,7.20
2023-05-01T03:20:25.329Z,7.50
2023-05-01T03:22:54.387Z,7.20
2023-05-01T03:25:24.107Z,7.30
2023-05-01T03:27:54.837Z,7.30
2023-05-01T03:30:23.622Z,7.30
2023-05-01T03:32:52.704Z,7.30
2023-05-01T03:35:27.653Z,7.40
2023-05-01T03:37:58.608Z,7.40
2023-05-01T03:40:48.095Z,7.60
2023-05-01T03:43:34.803Z,7.40
2023-05-01T03:46:08.565Z,7.40
2023-05-01T03:48:36.792Z,7.50
2023-05-01T03:51:05.761Z,7.50
2023-05-01T03:53:36.688Z,7.50
2023-05-01T03:56:09.213Z,7.50
2023-05-01T03:58:37.475Z,7.60
2023-05-01T04:01:06.315Z,7.60
2023-05-01T04:03:38.826Z,7.60
2023-05-01T04:06:07.783Z,7.60
2023-05-01T04:08:36.255Z,7.70
2023-05-01T04:11:04.436Z,7.60
2023-05-01T04:13:34.138Z,7.70
2023-05-01T04:16:03.758Z,7.70
2023-05-01T04:18:32.229Z,7.80
2023-05-01T04:21:01.060Z,7.80
2023-05-01T04:23:29.672Z,7.80
2023-05-01T04:26:00.258Z,7.80
2023-05-01T04:28:31.118Z,7.90
2023-05-01T04:31:00.876Z,7.90
2023-05-01T04:33:29.212Z,7.90
2023-05-01T04:35:57.541Z,8.00
2023-05-01T04:38:26.336Z,8.00
2023-05-01T04:40:56.804Z,8.00
2023-05-01T04:43:25.109Z,8.10
2023-05-01T04:45:53.445Z,8.10
2023-05-01T04:48:23.033Z,8.20
2023-05-01T04:50:51.975Z,8.40
2023-05-01T04:53:20.255Z,8.20
2023-05-01T04:55:48.394Z,8.40
2023-05-01T04:58:17.939Z,8.30
2023-05-01T05:00:49.391Z,8.40
2023-05-01T05:03:23.799Z,8.50
2023-05-01T05:05:52.247Z,8.70
2023-05-01T05:08:22.057Z,8.60
2023-05-01T05:10:59.793Z,8.70
2023-05-01T05:13:42.627Z,8.80
2023-05-01T05:16:13.747Z,9.00
2023-05-01T05:18:44.096Z,8.90
2023-05-01T05:21:12.416Z,9.00
2023-05-01T05:23:46.558Z,9.10
2023-05-01T05:26:14.997Z,9.30
2023-05-01T05:28:43.432Z,9.40
2023-05-01T05:31:11.562Z,9.40
2023-05-01T05:33:39.851Z,9.50
2023-05-01T05:36:09.603Z,9.70
2023-05-01T05:38:41.987Z,10.00
2023-05-01T05:41:12.929Z,9.90
2023-05-01T05:43:41.234Z,10.20
2023-05-01T05:46:10.389Z,10.10
2023-05-01T05:48:39.754Z,10.30
2023-05-01T05:51:09.709Z,10.70
2023-05-01T05:53:37.942Z,10.40
2023-05-01T05:56:07.278Z,10.40
2023-05-01T05:58:35.665Z,10.50
2023-05-01T06:01:03.885Z,10.70
2023-05-01T06:03:32.205Z,10.70
2023-05-01T06:06:03.016Z,10.70
2023-05-01T06:08:33.195Z,10.80
2023-05-01T06:11:01.375Z,10.90
2023-05-01T06:13:29.615Z,10.90
2023-05-01T06:15:58.530Z,11.10
2023-05-01T06:18:27.150Z,11.10
2023-05-01T06:20:55.372Z,11.20
2023-05-01T06:23:24.687Z,11.30
2023-05-01T06:26:12.837Z,11.40
2023-05-01T06:28:41.563Z,11.40
2023-05-01T06:31:10.292Z,11.50
2023-05-01T06:33:43.460Z,11.80
2023-05-01T06:36:22.648Z,11.70
2023-05-01T06:38:50.804Z,11.80
2023-05-01T06:41:22.019Z,11.90
2023-05-01T06:43:50.272Z,12.00
2023-05-01T06:46:19.845Z,12.00
2023-05-01T06:48:49.207Z,12.10
2023-05-01T06:51:17.425Z,12.30
2023-05-01T06:53:47.255Z,12.30
2023-05-01T06:56:15.415Z,12.30
2023-05-01T06:58:44.954Z,12.40
2023-05-01T07:01:13.209Z,12.60
2023-05-01T07:03:42.126Z,12.50
2023-05-01T07:06:10.392Z,12.60
2023-05-01T07:08:38.620Z,12.60
2023-05-01T07:11:07.598Z,12.70
2023-05-01T07:13:35.840Z,12.80
2023-05-01T07:16:06.227Z,13.00
2023-05-01T07:18:35.742Z,13.20
2023-05-01T07:21:03.885Z,13.50
2023-05-01T07:23:32.058Z,13.70
2023-05-01T07:26:00.426Z,13.90
2023-05-01T07:28:28.661Z,14.40
2023-05-01T07:30:56.915Z,15.00
2023-05-01T07:33:26.784Z,15.30
2023-05-01T07:35:55.079Z,15.40
2023-05-01T07:38:23.308Z,15.50
2023-05-01T07:40:53.854Z,15.50
2023-05-01T07:43:22.022Z,15.60
2023-05-01T07:45:57.208Z,15.40
2023-05-01T07:48:27.844Z,15.60
2023-05-01T07:50:57.137Z,15.60
2023-05-01T07:53:25.443Z,15.40
2023-05-01T07:55:53.586Z,15.40
2023-05-01T07:58:21.847Z,15.50
2023-05-01T08:00:50.023Z,15.60
2023-05-01T08:03:18.330Z,15.60
2023-05-01T08:05:47.873Z,15.50
2023-05-01T08:08:20.883Z,15.50
2023-05-01T08:10:49.301Z,15.70
2023-05-01T08:13:17.641Z,15.70
2023-05-01T08:15:46.953Z,16.00
2023-05-01T08:18:19.638Z,16.40
2023-05-01T08:20:49.501Z,16.50
2023-05-01T08:23:18.611Z,16.70
2023-05-01T08:25:50.772Z,16.80
2023-05-01T08:28:20.688Z,16.90
2023-05-01T08:30:50.318Z,17.40
2023-05-01T08:33:18.676Z,17.70
2023-05-01T08:35:46.880Z,17.90
2023-05-01T08:38:16.902Z,17.90
2023-05-01T08:40:52.064Z,17.90
2023-05-01T08:43:20.810Z,18.10
2023-05-01T08:45:49.791Z,18.10
2023-05-01T08:48:19.363Z,18.00
2023-05-01T08:50:48.280Z,18.20
2023-05-01T08:53:19.773Z,18.20
2023-05-01T08:55:49.663Z,18.20
2023-05-01T08:58:19.634Z,18.20
2023-05-01T09:00:48.569Z,18.10
2023-05-01T09:03:17.580Z,18.60
2023-05-01T09:05:47.065Z,19.00
2023-05-01T09:08:15.999Z,19.50
2023-05-01T09:10:49.265Z,19.90
2023-05-01T09:13:17.720Z,19.90
2023-05-01T09:15:46.016Z,19.70
2023-05-01T09:18:15.265Z,19.80
2023-05-01T09:20:43.556Z,20.00
2023-05-01T09:23:13.188Z,20.10
2023-05-01T09:25:42.330Z,20.40
2023-05-01T09:28:12.575Z,20.50
2023-05-01T09:30:41.217Z,20.60
2023-05-01T09:33:11.239Z,20.70
2023-05-01T09:35:53.216Z,20.80
2023-05-01T09:38:23.332Z,21.10
2023-05-01T09:40:52.146Z,21.10
2023-05-01T09:43:30.099Z,21.10
2023-05-01T09:46:03.837Z,21.20
2023-05-01T09:48:35.090Z,21.50
2023-05-01T09:51:21.853Z,21.20
2023-05-01T09:53:51.383Z,21.60
2023-05-01T09:56:20.311Z,22.10
2023-05-01T09:58:50.942Z,22.30
2023-05-01T10:01:20.105Z,22.50
2023-05-01T10:03:56.894Z,22.80
2023-05-01T10:06:29.915Z,23.30
2023-05-01T10:08:58.166Z,23.40
2023-05-01T10:11:26.977Z,23.30
2023-05-01T10:14:14.463Z,23.30
2023-05-01T10:16:43.324Z,23.30
2023-05-01T10:19:12.577Z,23.20
2023-05-01T10:21:40.820Z,23.30
2023-05-01T10:24:10.124Z,22.90
2023-05-01T10:26:38.911Z,22.90
2023-05-01T10:29:07.136Z,23.10
2023-05-01T10:31:36.792Z,23.10
2023-05-01T10:34:05.431Z,23.40
2023-05-01T10:36:39.235Z,23.50
2023-05-01T10:39:08.101Z,23.50
2023-05-01T10:42:10.977Z,23.60
2023-05-01T10:44:39.378Z,23.50
2023-05-01T10:47:45.028Z,23.60
2023-05-01T10:50:16.059Z,23.80
2023-05-01T10:53:18.805Z,23.70
2023-05-01T10:55:49.258Z,23.80
2023-05-01T10:58:52.065Z,23.70
2023-05-01T11:01:31.496Z,23.70
2023-05-01T11:04:04.071Z,23.60
2023-05-01T11:06:33.965Z,23.60
2023-05-01T11:09:04.496Z,23.60
2023-05-01T11:11:53.639Z,23.40
2023-05-01T11:14:21.852Z,23.20
2023-05-01T11:16:50.446Z,23.00
2023-05-01T11:19:50.420Z,23.00
2023-05-01T11:22:20.640Z,22.90
2023-05-01T11:24:48.865Z,23.00
2023-05-01T11:27:18.302Z,22.80
2023-05-01T11:29:49.673Z,23.00
2023-05-01T11:32:25.132Z,23.00
2023-05-01T11:34:53.752Z,22.90
2023-05-01T11:37:40.946Z,22.90
2023-05-01T11:40:21.138Z,23.20
2023-05-01T11:42:49.571Z,23.20
2023-05-01T11:45:18.297Z,23.00
2023-05-01T11:47:46.501Z,23.00
2023-05-01T11:50:14.732Z,23.10
2023-05-01T11:52:45.610Z,23.20
2023-05-01T11:55:13.846Z,23.10
2023-05-01T11:57:49.778Z,23.10
2023-05-01T12:00:27.226Z,23.00
2023-05-01T12:03:00.318Z,22.70
2023-05-01T12:05:30.907Z,22.40
2023-05-01T12:08:19.450Z,22.30
2023-05-01T12:10:49.656Z,22.30
2023-05-01T12:13:18.648Z,22.10
2023-05-01T12:15:47.939Z,22.10
2023-05-01T12:18:17.884Z,22.30
2023-05-01T12:20:47.659Z,22.30
2023-05-01T12:23:18.134Z,22.30
2023-05-01T12:25:47.217Z,22.00
2023-05-01T12:28:17.536Z,22.00
2023-05-01T12:30:47.001Z,22.00
2023-05-01T12:33:16.732Z,22.00
2023-05-01T12:35:46.754Z,22.00
2023-05-01T12:38:17.343Z,21.80
2023-05-01T12:41:07.200Z,21.80
2023-05-01T12:43:36.849Z,21.80
2023-05-01T12:46:06.708Z,21.70
2023-05-01T12:48:39.654Z,21.80
2023-05-01T12:51:08.207Z,21.80
2023-05-01T12:53:44.690Z,21.50
2023-05-01T12:56:23.978Z,21.40
2023-05-01T12:58:53.532Z,21.30
2023-05-01T13:01:26.862Z,21.10
2023-05-01T13:03:57.934Z,21.00
2023-05-01T13:06:34.512Z,21.00
2023-05-01T13:09:10.511Z,20.90
2023-05-01T13:11:40.204Z,20.90
2023-05-01T13:14:09.694Z,20.70
2023-05-01T13:16:46.410Z,20.60
2023-05-01T13:19:25.366Z,20.50
2023-05-01T13:21:53.832Z,20.30
2023-05-01T13:24:22.262Z,20.40
2023-05-01T13:27:01.870Z,20.50
2023-05-01T13:29:32.395Z,20.50
2023-05-01T13:32:01.047Z,20.60
2023-05-01T13:34:32.857Z,20.60
2023-05-01T13:37:02.902Z,20.70
2023-05-01T13:39:31.141Z,20.90
2023-05-01T13:42:06.364Z,20.80
2023-05-01T13:44:34.683Z,20.80
2023-05-01T13:47:04.221Z,20.90
2023-05-01T13:49:32.363Z,21.00
2023-05-01T13:52:00.789Z,21.10
2023-05-01T13:54:28.984Z,21.00
2023-05-01T13:56:57.906Z,21.10
2023-05-01T13:59:31.533Z,21.20
2023-05-01T14:02:00.152Z,21.20
2023-05-01T14:04:28.337Z,21.50
2023-05-01T14:06:58.440Z,21.50
2023-05-01T14:09:26.698Z,21.60
2023-05-01T14:11:55.638Z,21.70
2023-05-01T14:14:23.835Z,21.50
2023-05-01T14:16:54.135Z,21.60
2023-05-01T14:19:22.441Z,21.50
2023-05-01T14:21:50.915Z,21.30
2023-05-01T14:24:19.124Z,21.30
2023-05-01T14:26:50.052Z,21.20
2023-05-01T14:29:24.830Z,21.20
2023-05-01T14:31:55.443Z,21.10
2023-05-01T14:34:23.948Z,20.90
2023-05-01T14:36:52.163Z,20.70
2023-05-01T14:39:20.692Z,20.90
2023-05-01T14:41:49.318Z,20.90
2023-05-01T14:44:24.277Z,21.10
2023-05-01T14:46:54.034Z,21.10
2023-05-01T14:49:24.390Z,20.90
2023-05-01T14:51:54.046Z,21.20
2023-05-01T14:54:22.427Z,21.20
2023-05-01T14:56:50.943Z,21.20
2023-05-01T14:59:19.112Z,21.20
2023-05-01T15:01:47.264Z,21.20
2023-05-01T15:04:17.337Z,21.30
2023-05-01T15:06:45.991Z,21.40
2023-05-01T15:09:14.727Z,21.50
2023-05-01T15:11:43.528Z,21.50
2023-05-01T15:14:11.729Z,21.60
2023-05-01T15:16:39.942Z,21.40
2023-05-01T15:19:08.213Z,21.00
2023-05-01T15:21:37.677Z,20.80
2023-05-01T15:24:05.967Z,20.70
2023-05-01T15:26:34.587Z,20.50
2023-05-01T15:29:02.802Z,20.50
2023-05-01T15:31:31.650Z,20.40
2023-05-01T15:33:59.808Z,20.30
2023-05-01T15:36:28.036Z,20.00
2023-05-01T15:38:57.562Z,20.00
2023-05-01T15:41:25.702Z,20.10
2023-05-01T15:43:53.876Z,19.90
2023-05-01T15:46:23.461Z,19.90
2023-05-01T15:48:51.772Z,19.80
2023-05-01T15:51:19.979Z,19.80
2023-05-01T15:53:48.173Z,19.70
2023-05-01T15:56:17.673Z,19.70
2023-05-01T15:58:45.841Z,19.60
2023-05-01T16:01:15.533Z,19.60
2023-05-01T16:03:47.131Z,19.60
2023-05-01T16:06:17.884Z,19.60
2023-05-01T16:08:46.274Z,19.70
2023-05-01T16:11:14.648Z,19.60
2023-05-01T16:13:48.818Z,19.70
2023-05-01T16:16:23.835Z,20.10
2023-05-01T16:18:58.684Z,20.10
2023-05-01T16:21:41.775Z,20.00
2023-05-01T16:24:28.045Z,20.00
2023-05-01T16:26:58.215Z,20.10
2023-05-01T16:29:42.845Z,19.90
2023-05-01T16:32:21.032Z,19.80
2023-05-01T16:34:50.052Z,19.40
2023-05-01T16:37:25.415Z,19.40
2023-05-01T16:40:00.694Z,19.50
2023-05-01T16:42:45.230Z,19.00
2023-05-01T16:45:16.058Z,18.90
2023-05-01T16:47:46.825Z,18.50
2023-05-01T16:50:20.616Z,18.10
2023-05-01T16:53:02.447Z,18.20
2023-05-01T16:55:33.980Z,18.00
2023-05-01T16:58:10.236Z,18.00
2023-05-01T17:00:42.272Z,17.60
2023-05-01T17:03:21.890Z,17.80
2023-05-01T17:05:55.706Z,17.20
2023-05-01T17:08:30.361Z,17.20
2023-05-01T17:10:58.967Z,17.10
2023-05-01T17:13:27.601Z,16.90
2023-05-01T17:16:02.699Z,16.80
2023-05-01T17:18:31.500Z,16.70
2023-05-01T17:21:03.144Z,16.60
2023-05-01T17:23:34.475Z,16.50
2023-05-01T17:26:03.386Z,16.50
2023-05-01T17:28:45.948Z,16.70
2023-05-01T17:31:21.850Z,16.50
2023-05-01T17:33:50.979Z,16.40
2023-05-01T17:36:21.459Z,16.10
2023-05-01T17:38:50.733Z,16.10
2023-05-01T17:41:19.250Z,16.50
2023-05-01T17:44:09.247Z,16.50
2023-05-01T17:46:48.563Z,15.80
2023-05-01T17:49:20.667Z,15.70
2023-05-01T17:51:49.118Z,16.00
2023-05-01T17:54:32.199Z,15.30
2023-05-01T17:57:00.673Z,15.60
2023-05-01T17:59:30.766Z,15.50
2023-05-01T18:02:02.875Z,15.40
2023-05-01T18:04:39.726Z,15.50
2023-05-01T18:07:08.174Z,15.30
2023-05-01T18:09:36.802Z,15.30
2023-05-01T18:12:13.152Z,15.20
2023-05-01T18:14:52.228Z,15.20
2023-05-01T18:17:25.209Z,15.40
2023-05-01T18:19:53.538Z,15.20
2023-05-01T18:22:23.741Z,15.40
2023-05-01T18:24:57.607Z,15.10
2023-05-01T18:27:32.321Z,15.10
2023-05-01T18:30:03.020Z,14.90
2023-05-01T18:32:47.772Z,15.10
2023-05-01T18:35:19.131Z,14.90
2023-05-01T18:37:55.619Z,14.70
2023-05-01T18:40:32.500Z,14.40
2023-05-01T18:43:05.186Z,14.20
2023-05-01T18:45:41.523Z,14.00
2023-05-01T18:48:11.627Z,13.90
2023-05-01T18:50:40.094Z,13.70
2023-05-01T18:53:09.077Z,14.10
2023-05-01T18:55:37.602Z,13.50
2023-05-01T18:58:06.145Z,13.40
2023-05-01T19:00:39.204Z,13.40
2023-05-01T19:03:19.743Z,13.20
2023-05-01T19:05:53.643Z,13.40
2023-05-01T19:08:23.196Z,13.10
2023-05-01T19:11:14.561Z,12.80
2023-05-01T19:13:42.945Z,12.40
2023-05-01T19:16:11.606Z,12.40
2023-05-01T19:18:41.500Z,12.20
2023-05-01T19:21:11.079Z,12.10
2023-05-01T19:23:46.750Z,12.20
2023-05-01T19:26:17.097Z,12.20
2023-05-01T19:28:58.729Z,12.20
2023-05-01T19:31:27.242Z,11.80
2023-05-01T19:33:59.176Z,11.60
2023-05-01T19:36:29.616Z,11.20
2023-05-01T19:39:00.560Z,11.30
2023-05-01T19:41:34.216Z,11.60
2023-05-01T19:44:02.812Z,11.00
2023-05-01T19:46:32.092Z,11.10
2023-05-01T19:49:02.725Z,11.00
2023-05-01T19:51:33.707Z,11.70
2023-05-01T19:54:04.434Z,10.70
2023-05-01T19:56:34.500Z,10.60
2023-05-01T19:59:03.732Z,10.70
2023-05-01T20:01:34.602Z,10.40
2023-05-01T20:04:04.562Z,10.50
2023-05-01T20:06:35.608Z,10.00
2023-05-01T20:09:04.080Z,10.30
2023-05-01T20:11:32.715Z,11.20
2023-05-01T20:14:03.436Z,10.50
2023-05-01T20:16:32.164Z,10.00
2023-05-01T20:19:00.535Z,10.30
2023-05-01T20:21:30.561Z,10.20
2023-05-01T20:23:58.931Z,9.80
2023-05-01T20:26:27.765Z,9.80
2023-05-01T20:28:56.803Z,9.80
2023-05-01T20:31:25.367Z,9.80
2023-05-01T20:33:57.974Z,9.70
2023-05-01T20:36:26.426Z,9.70
2023-05-01T20:38:57.875Z,9.70
2023-05-01T20:41:28.000Z,9.60
2023-05-01T20:43:57.080Z,9.60
2023-05-01T20:46:25.542Z,9.60
2023-05-01T20:48:54.691Z,9.50
2023-05-01T20:51:27.392Z,9.60
2023-05-01T20:53:59.295Z,9.60
2023-05-01T20:56:27.677Z,9.80
2023-05-01T20:58:56.076Z,10.30
2023-05-01T21:01:26.435Z,9.80
2023-05-01T21:03:56.175Z,9.80
2023-05-01T21:06:24.956Z,9.90
2023-05-01T21:08:53.873Z,9.90
2023-05-01T21:11:23.929Z,10.40
2023-05-01T21:13:52.594Z,10.30
2023-05-01T21:16:21.389Z,9.90
2023-05-01T21:18:50.161Z,10.50
2023-05-01T21:21:22.676Z,9.70
2023-05-01T21:23:51.705Z,10.80
2023-05-01T21:26:22.180Z,10.20
2023-05-01T21:28:52.178Z,9.50
2023-05-01T21:31:34.485Z,9.30
2023-05-01T21:34:03.601Z,9.30
2023-05-01T21:36:40.890Z,9.70
2023-05-01T21:39:12.498Z,9.10
2023-05-01T21:41:43.059Z,9.10
2023-05-01T21:44:13.721Z,9.60
2023-05-01T21:46:43.343Z,9.00
2023-05-01T21:49:12.730Z,9.30
2023-05-01T21:51:41.393Z,8.90
2023-05-01T21:54:12.016Z,8.80
2023-05-01T21:56:41.168Z,8.90
2023-05-01T21:59:09.862Z,9.30
2023-05-01T22:01:44.966Z,9.30
2023-05-01T22:04:19.450Z,8.90
2023-05-01T22:06:49.703Z,9.30
2023-05-01T22:09:18.585Z,9.00
2023-05-01T22:11:46.986Z,9.00
2023-05-01T22:14:16.300Z,9.50
2023-05-01T22:16:49.412Z,9.10
2023-05-01T22:19:26.720Z,9.10
2023-05-01T22:21:55.346Z,9.10
2023-05-01T22:24:23.898Z,9.10
2023-05-01T22:26:52.444Z,9.10
2023-05-01T22:29:20.767Z,9.50
2023-05-01T22:31:50.472Z,10.20
2023-05-01T22:34:19.234Z,9.30
2023-05-01T22:36:47.762Z,8.90
2023-05-01T22:39:16.501Z,9.00
2023-05-01T22:41:45.477Z,8.80
2023-05-01T22:44:13.869Z,8.80
2023-05-01T22:46:44.400Z,8.70
2023-05-01T22:49:14.706Z,8.80
2023-05-01T22:51:43.769Z,8.50
2023-05-01T22:54:12.386Z,8.50
2023-05-01T22:56:40.994Z,8.40
2023-05-01T22:59:09.604Z,8.50
2023-05-01T23:01:41.411Z,8.60
2023-05-01T23:04:10.120Z,8.40
2023-05-01T23:06:40.389Z,8.40
2023-05-01T23:09:08.806Z,8.40
2023-05-01T23:11:37.331Z,8.30
2023-05-01T23:14:06.093Z,8.80
2023-05-01T23:16:41.547Z,8.30
2023-05-01T23:19:20.249Z,8.30
2023-05-01T23:21:52.258Z,8.20
2023-05-01T23:24:22.290Z,8.20
2023-05-01T23:26:51.029Z,9.10
2023-05-01T23:29:19.919Z,8.90
2023-05-01T23:31:48.913Z,9.40
2023-05-01T23:34:18.255Z,8.10
2023-05-01T23:36:47.985Z,8.60
2023-05-01T23:39:18.438Z,7.20
2023-05-01T23:41:47.336Z,8.10
2023-05-01T23:44:16.952Z,7.90
2023-05-01T23:46:46.195Z,8.00
2023-05-01T23:49:15.002Z,8.30
2023-05-01T23:51:43.974Z,7.20
2023-05-01T23:54:12.317Z,8.30
2023-05-01T23:56:42.178Z,7.80
2023-05-01T23:59:10.513Z,7.60
